Time;durP1;ratioP1;P1;durP2;ratioP2;P2;SDS_P1;SDS_P2;PMS_P1;PMS_P2;Temp;Humidity;BMP_temperature;BMP_pressure;BME280_temperature;BME280_humidity;BME280_pressure;Samples;Min_cycle;Max_cycle;Signal;HPM_P1;HPM_P2
2023/03/02 00:02:43;;;;;;;14.52;6.93;;;;;;;5.35;58.26;100401.03;7792602;32;38007;-80
2023/03/02 00:07:03;;;;;;;14.00;7.07;;;;;;;5.38;53.03;100400.59;7779541;32;37768;-80
2023/03/02 00:11:20;;;;;;;12.55;7.87;;;;;;;5.47;52.33;100406.56;7793768;32;39203;-79
2023/03/02 00:15:36;;;;;;;17.15;8.30;;;;;;;5.60;51.46;100402.87;7771239;32;39770;-80
2023/03/02 00:19:53;;;;;;;11.75;6.93;;;;;;;5.29;52.09;100395.69;7766342;32;37728;-80
2023/03/02 00:24:10;;;;;;;13.43;7.10;;;;;;;5.39;51.84;100402.25;7766303;32;37059;-80
2023/03/02 00:28:26;;;;;;;12.90;7.28;;;;;;;5.33;51.73;100396.87;7792620;32;39947;-79
2023/03/02 00:32:43;;;;;;;13.30;7.22;;;;;;;5.24;52.24;100394.50;7793400;32;39879;-80
2023/03/02 00:36:59;;;;;;;14.35;7.75;;;;;;;5.16;52.99;100394.75;7793337;32;38748;-79
2023/03/02 00:41:16;;;;;;;16.17;7.12;;;;;;;4.80;53.83;100387.38;7793240;32;37765;-80
2023/03/02 00:45:32;;;;;;;12.73;7.22;;;;;;;4.80;53.82;100382.78;7793280;32;39977;-80
2023/03/02 00:49:48;;;;;;;12.35;6.37;;;;;;;5.03;52.98;100375.94;7793168;32;39877;-80
2023/03/02 00:54:05;;;;;;;12.93;6.95;;;;;;;4.88;52.82;100385.22;7793119;32;38530;-80
2023/03/02 00:58:21;;;;;;;12.70;7.00;;;;;;;4.82;52.99;100391.50;7768792;32;37764;-80
2023/03/02 01:02:42;;;;;;;12.20;6.93;;;;;;;4.74;52.43;100378.25;7765831;32;40032;-79
2023/03/02 01:07:09;;;;;;;14.10;6.95;;;;;;;4.50;52.94;100380.72;7786793;32;39964;-80
2023/03/02 01:11:25;;;;;;;12.07;6.70;;;;;;;4.73;52.75;100373.91;7792663;32;38064;-80
2023/03/02 01:15:42;;;;;;;12.85;6.95;;;;;;;4.83;52.36;100368.84;7791546;32;37412;-79
2023/03/02 01:19:58;;;;;;;11.12;6.47;;;;;;;4.76;52.14;100365.38;7792720;32;39375;-80
2023/03/02 01:24:15;;;;;;;11.63;6.25;;;;;;;4.58;52.36;100365.28;7793203;32;39159;-79
2023/03/02 01:28:31;;;;;;;14.20;6.65;;;;;;;4.53;52.73;100355.13;7792770;32;37844;-80
2023/03/02 01:32:47;;;;;;;17.45;6.68;;;;;;;4.24;53.74;100349.31;7792736;32;37841;-80
2023/03/02 01:37:03;;;;;;;11.27;7.25;;;;;;;4.63;52.48;100343.84;7778857;32;40031;-80
2023/03/02 01:41:20;;;;;;;14.40;7.35;;;;;;;4.36;53.29;100344.00;7792515;32;39947;-79
2023/03/02 01:45:50;;;;;;;17.00;8.15;;;;;;;4.21;54.37;100338.94;7768602;32;37875;-80
2023/03/02 01:50:23;;;;;;;11.02;6.50;;;;;;;4.29;54.93;100335.97;7765570;32;36862;-79
2023/03/02 01:54:41;;;;;;;13.53;7.33;;;;;;;4.21;54.05;100330.84;7765512;32;40051;-79
2023/03/02 01:59:06;;;;;;;11.82;7.35;;;;;;;4.14;53.85;100328.16;7751534;32;40066;-79
2023/03/02 02:03:25;;;;;;;10.98;6.53;;;;;;;4.11;54.81;100325.91;7765123;32;37659;-78
2023/03/02 02:07:42;;;;;;;14.13;6.78;;;;;;;4.23;54.02;100319.81;7751433;32;36479;-79
2023/03/02 02:11:58;;;;;;;15.85;7.07;;;;;;;4.22;53.70;100326.25;7765187;32;39218;-79
2023/03/02 02:16:15;;;;;;;12.35;6.75;;;;;;;4.45;53.38;100321.13;7765095;32;39734;-78
2023/03/02 02:20:45;;;;;;;11.48;7.03;;;;;;;4.18;53.73;100315.06;7736592;32;38733;-79
2023/03/02 02:25:05;;;;;;;16.45;7.28;;;;;;;4.21;53.32;100305.69;7737017;32;37037;-80
2023/03/02 02:29:25;;;;;;;11.98;6.85;;;;;;;4.16;53.93;100300.97;7736806;32;40008;-79
2023/03/02 02:33:44;;;;;;;14.50;7.72;;;;;;;4.34;53.04;100289.41;7736612;32;39868;-79
2023/03/02 02:38:06;;;;;;;16.40;7.18;;;;;;;4.11;54.12;100293.50;7736535;32;38442;-79
2023/03/02 02:42:34;;;;;;;19.65;7.82;;;;;;;3.93;54.85;100293.41;7736584;32;36796;-79
2023/03/02 02:46:51;;;;;;;14.30;7.03;;;;;;;4.30;53.28;100291.72;7736536;32;39994;-79
2023/03/02 02:51:12;;;;;;;13.38;7.20;;;;;;;4.23;52.96;100287.44;7738619;32;39922;-78
2023/03/02 02:55:29;;;;;;;14.32;7.18;;;;;;;4.08;53.07;100280.44;7763311;32;38613;-80
2023/03/02 02:59:49;;;;;;;19.92;8.68;;;;;;;4.09;52.75;100287.50;7764145;32;37261;-79
2023/03/02 03:04:05;;;;;;;15.07;7.93;;;;;;;4.08;53.53;100288.53;7761714;32;39151;-80
2023/03/02 03:08:44;;;;;;;17.40;7.85;;;;;;;3.80;56.09;100297.00;7764188;32;39964;-79
2023/03/02 03:13:01;;;;;;;19.37;9.57;;;;;;;3.70;56.10;100281.28;7764009;32;37672;-79
2023/03/02 03:17:17;;;;;;;14.45;8.32;;;;;;;3.61;55.84;100281.75;7764159;32;37230;-80
2023/03/02 03:21:34;;;;;;;20.25;9.25;;;;;;;3.62;56.44;100281.50;7784441;32;39231;-79
2023/03/02 03:25:50;;;;;;;17.48;9.88;;;;;;;3.68;55.22;100287.94;7763752;32;40834;-80
2023/03/02 03:30:07;;;;;;;14.80;8.35;;;;;;;3.74;54.58;100282.53;7763642;32;37648;-79
2023/03/02 03:34:24;;;;;;;13.40;7.10;;;;;;;3.66;54.65;100274.66;7764292;32;36936;-80
2023/03/02 03:38:41;;;;;;;11.98;7.15;;;;;;;3.70;54.22;100280.47;7766955;32;38998;-79
2023/03/02 03:42:57;;;;;;;11.43;7.05;;;;;;;3.84;53.90;100281.22;7766845;32;39912;-79
2023/03/02 03:47:13;;;;;;;13.60;7.43;;;;;;;3.50;54.40;100276.00;7793487;32;37633;-79
2023/03/02 03:51:34;;;;;;;13.50;7.82;;;;;;;3.89;53.39;100279.53;7793903;32;37151;-81
2023/03/02 03:55:50;;;;;;;11.10;6.75;;;;;;;4.05;52.21;100278.22;7793942;32;40089;-80
2023/03/02 04:00:10;;;;;;;12.13;7.03;;;;;;;3.79;52.23;100281.03;7793785;32;40675;-79
2023/03/02 04:04:29;;;;;;;13.62;7.10;;;;;;;3.73;52.35;100280.03;7793622;32;37905;-79
2023/03/02 04:08:45;;;;;;;13.52;7.30;;;;;;;3.68;52.41;100277.97;7793777;32;37907;-79
2023/03/02 04:13:02;;;;;;;13.93;7.50;;;;;;;3.92;51.30;100281.78;7793755;32;39218;-79
2023/03/02 04:17:19;;;;;;;13.70;7.03;;;;;;;3.82;50.13;100270.66;7793272;32;40590;-79
2023/03/02 04:21:41;;;;;;;15.55;8.70;;;;;;;3.88;48.37;100274.34;7793346;32;37823;-79
2023/03/02 04:25:57;;;;;;;13.27;7.83;;;;;;;3.72;48.11;100279.19;7793489;32;37759;-80
2023/03/02 04:30:15;;;;;;;14.57;6.75;;;;;;;4.00;47.59;100274.50;7779229;32;39313;-80
2023/03/02 04:34:32;;;;;;;14.80;7.45;;;;;;;3.73;49.89;100272.75;7793341;32;40376;-79
2023/03/02 04:38:48;;;;;;;14.27;8.23;;;;;;;3.68;49.82;100269.06;7779247;32;38594;-79
2023/03/02 04:43:04;;;;;;;18.15;7.82;;;;;;;3.80;48.85;100275.44;7776613;32;36797;-80
2023/03/02 04:47:20;;;;;;;13.07;7.00;;;;;;;3.35;48.45;100273.53;7765987;32;37161;-79
2023/03/02 04:51:40;;;;;;;13.80;7.47;;;;;;;3.61;49.53;100276.38;7765961;32;39920;-79
2023/03/02 04:55:56;;;;;;;13.52;7.62;;;;;;;3.62;49.56;100284.22;7752336;32;38649;-79
2023/03/02 05:00:13;;;;;;;11.07;6.62;;;;;;;3.47;50.90;100283.69;7765794;32;37768;-79
2023/03/02 05:04:29;;;;;;;15.20;8.20;;;;;;;3.60;50.53;100285.47;7752065;32;39170;-79
2023/03/02 05:08:46;;;;;;;14.60;8.25;;;;;;;3.71;50.28;100282.94;7752101;32;41052;-79
2023/03/02 05:13:04;;;;;;;15.48;7.47;;;;;;;3.72;50.42;100289.97;7765552;32;37701;-79
2023/03/02 05:17:20;;;;;;;10.70;7.15;;;;;;;3.70;50.06;100286.66;7765657;32;36847;-79
2023/03/02 05:21:37;;;;;;;13.18;7.68;;;;;;;3.66;50.30;100285.47;7765500;32;40103;-79
2023/03/02 05:25:54;;;;;;;11.07;7.45;;;;;;;3.66;50.56;100284.63;7751789;32;40826;-80
2023/03/02 05:30:11;;;;;;;13.70;7.80;;;;;;;3.64;50.63;100289.38;7765544;32;37689;-79
2023/03/02 05:34:28;;;;;;;14.45;7.35;;;;;;;3.70;50.35;100286.66;7765598;32;36892;-80
2023/03/02 05:38:44;;;;;;;19.12;8.07;;;;;;;3.69;50.30;100289.56;7765518;32;39203;-79
2023/03/02 05:43:00;;;;;;;15.85;7.90;;;;;;;3.54;50.83;100295.25;7782750;32;40038;-80
2023/03/02 05:47:16;;;;;;;15.23;7.87;;;;;;;3.67;50.55;100288.97;7792518;32;37683;-80
2023/03/02 05:51:33;;;;;;;14.27;8.25;;;;;;;3.50;49.77;100291.31;7792845;32;36078;-79
2023/03/02 05:55:50;;;;;;;15.43;7.97;;;;;;;3.75;48.00;100294.94;7792446;32;39927;-79
2023/03/02 06:00:10;;;;;;;15.63;8.13;;;;;;;3.58;48.07;100304.56;7791225;32;39922;-78
2023/03/02 06:04:27;;;;;;;22.13;7.82;;;;;;;3.84;47.43;100300.91;7792306;32;37575;-79
2023/03/02 06:08:43;;;;;;;16.33;7.15;;;;;;;3.73;46.92;100313.22;7792709;32;34853;-79
2023/03/02 06:12:59;;;;;;;15.68;7.18;;;;;;;3.95;46.71;100308.34;7792080;32;39988;-80
2023/03/02 06:17:16;;;;;;;10.68;6.12;;;;;;;4.15;46.66;100310.09;7792070;32;40793;-81
2023/03/02 06:21:32;;;;;;;13.23;7.37;;;;;;;3.75;52.46;100321.09;7791260;32;37857;-80
2023/03/02 06:25:48;;;;;;;17.77;7.87;;;;;;;3.89;48.76;100316.47;7792275;32;38101;-76
2023/03/02 06:30:06;;;;;;;15.43;8.30;;;;;;;4.36;54.17;100317.03;7791825;32;39032;-75
2023/03/02 06:34:22;;;;;;;19.98;8.98;;;;;;;4.51;49.70;100319.41;7792066;32;40625;-79
2023/03/02 06:38:38;;;;;;;22.62;8.82;;;;;;;4.71;47.57;100316.59;7785735;32;38502;-79
2023/03/02 06:42:55;;;;;;;18.73;8.85;;;;;;;4.51;46.79;100317.53;7783470;32;37034;-79
2023/03/02 06:47:11;;;;;;;15.30;7.62;;;;;;;4.66;46.41;100317.22;7791846;32;39200;-78
2023/03/02 06:51:27;;;;;;;15.88;8.00;;;;;;;4.94;44.28;100317.84;7791815;32;40881;-79
2023/03/02 06:55:45;;;;;;;16.58;8.07;;;;;;;4.99;43.98;100320.72;7787703;32;38022;-79
2023/03/02 07:00:08;;;;;;;16.83;7.62;;;;;;;5.27;44.25;100321.03;7790594;32;36869;-80
2023/03/02 07:04:27;;;;;;;16.58;8.57;;;;;;;5.36;43.93;100309.94;7763409;32;39771;-80
2023/03/02 07:08:43;;;;;;;15.93;7.20;;;;;;;5.50;44.41;100321.41;7763045;32;39898;-80
2023/03/02 07:13:01;;;;;;;15.85;7.00;;;;;;;5.73;44.31;100323.47;7764176;32;37329;-83
2023/03/02 07:17:17;;;;;;;15.32;7.72;;;;;;;5.82;42.68;100322.91;7767429;32;138391;-81
2023/03/02 07:21:34;;;;;;;14.77;7.97;;;;;;;5.72;48.76;100319.91;7790886;32;40018;-80
2023/03/02 07:25:50;;;;;;;16.15;8.38;;;;;;;6.06;46.41;100316.84;7789839;32;39921;-81
2023/03/02 07:30:07;;;;;;;20.10;9.98;;;;;;;6.30;42.96;100309.62;7790739;32;39112;-80
2023/03/02 07:34:25;;;;;;;16.62;8.40;;;;;;;6.57;44.25;100310.88;7788062;32;37145;-79
2023/03/02 07:38:41;;;;;;;17.35;8.00;;;;;;;6.62;45.35;100309.31;7783298;32;39231;-80
2023/03/02 07:42:57;;;;;;;16.58;7.97;;;;;;;6.74;43.72;100310.16;7761270;32;40076;-80
2023/03/02 07:47:13;;;;;;;15.85;8.00;;;;;;;6.91;43.56;100304.87;7784028;32;37971;-80
2023/03/02 07:51:29;;;;;;;17.87;9.27;;;;;;;7.02;40.38;100305.94;7775577;32;37015;-82
2023/03/02 07:55:46;;;;;;;14.77;8.55;;;;;;;7.32;39.27;100297.69;7787159;32;39370;-82
2023/03/02 08:00:05;;;;;;;13.60;7.85;;;;;;;7.31;38.26;100296.03;7781801;32;38920;-80
2023/03/02 08:04:23;;;;;;;13.93;7.72;;;;;;;7.48;38.00;100286.09;7762308;32;38105;-81
2023/03/02 08:08:40;;;;;;;11.73;6.68;;;;;;;7.78;34.79;100298.66;7768064;32;37660;-81
2023/03/02 08:12:56;;;;;;;14.35;6.32;;;;;;;7.99;33.64;100293.63;7788504;32;39995;-81
2023/03/02 08:17:12;;;;;;;16.45;7.03;;;;;;;7.98;37.93;100287.34;7788928;32;40465;-80
2023/03/02 08:21:28;;;;;;;11.75;6.70;;;;;;;8.42;33.04;100282.22;7784068;32;38689;-83
2023/03/02 08:25:44;;;;;;;14.07;7.57;;;;;;;8.40;34.94;100288.91;7776900;32;37808;-82
2023/03/02 08:30:01;;;;;;;11.48;6.50;;;;;;;8.38;33.67;100280.19;7783462;32;40062;-81
2023/03/02 08:34:17;;;;;;;11.75;6.35;;;;;;;8.60;31.83;100281.16;7781231;32;39884;-80
2023/03/02 08:38:34;;;;;;;14.35;7.20;;;;;;;8.81;31.29;100274.16;7775571;32;38031;-81
2023/03/02 08:42:55;;;;;;;15.02;6.60;;;;;;;9.10;35.54;100270.50;7781294;32;37122;-82
2023/03/02 08:47:12;;;;;;;14.15;6.50;;;;;;;9.05;30.90;100264.97;7793480;32;40028;-83
2023/03/02 08:51:30;;;;;;;12.25;6.87;;;;;;;9.29;32.20;100266.41;7793383;32;39996;-83
2023/03/02 08:55:46;;;;;;;12.00;6.53;;;;;;;9.48;31.03;100261.47;7773391;32;37169;-82
2023/03/02 09:00:07;;;;;;;13.10;6.78;;;;;;;9.96;31.85;100259.03;7772765;32;37298;-83
2023/03/02 09:04:23;;;;;;;12.10;6.35;;;;;;;10.20;32.78;100267.72;7793303;32;39327;-84
2023/03/02 09:08:40;;;;;;;13.65;6.00;;;;;;;9.92;31.73;100263.38;7793038;32;40780;-86
2023/03/02 09:12:58;;;;;;;14.95;6.37;;;;;;;10.05;34.45;100262.12;7769331;32;38154;-84
2023/03/02 09:17:16;;;;;;;14.13;5.97;;;;;;;10.47;30.67;100265.00;7765667;32;37592;-86
2023/03/02 09:21:34;;;;;;;9.48;4.68;;;;;;;10.26;30.91;100260.41;7774002;32;39109;-85
2023/03/02 09:25:51;;;;;;;8.73;4.25;;;;;;;10.65;30.21;100254.78;7751839;32;39558;-85
2023/03/02 09:30:09;;;;;;;11.85;3.87;;;;;;;11.58;27.94;100243.31;7765813;32;37975;-82
2023/03/02 09:34:25;;;;;;;8.63;3.75;;;;;;;12.17;28.13;100244.84;7774344;32;36929;-82
2023/03/02 09:38:41;;;;;;;8.48;4.07;;;;;;;11.83;25.55;100233.56;7770008;32;40017;-83
2023/03/02 09:43:14;;;;;;;11.27;4.12;;;;;;;12.32;26.69;100230.37;7792792;32;40880;-82
2023/03/02 09:47:48;;;;;;;9.07;4.53;;;;;;;12.63;26.16;100224.91;7763773;32;37896;-80
2023/03/02 09:52:28;;;;;;;9.50;4.53;;;;;;;13.20;25.15;100224.81;7763906;32;36776;-83
2023/03/02 09:56:49;;;;;;;7.18;3.45;;;;;;;13.44;24.23;100216.81;7764998;32;39306;-82
2023/03/02 10:01:12;;;;;;;11.98;4.20;;;;;;;13.21;26.25;100219.06;7751322;32;39547;-82
2023/03/02 10:05:40;;;;;;;9.73;3.95;;;;;;;13.83;26.10;100216.91;7752063;32;38745;-81
2023/03/02 10:10:17;;;;;;;7.82;3.80;;;;;;;13.51;24.36;100212.66;7765494;32;36612;-81
2023/03/02 10:15:00;;;;;;;8.25;4.10;;;;;;;14.00;25.01;100210.19;7769721;32;38928;-82
2023/03/02 10:19:25;;;;;;;8.63;4.00;;;;;;;14.34;24.19;100198.44;7761943;32;41350;-82
2023/03/02 10:24:16;;;;;;;9.15;4.00;;;;;;;14.33;23.46;100202.28;7751209;32;38109;-82
2023/03/02 10:28:40;;;;;;;8.60;3.97;;;;;;;14.24;23.25;100202.87;7765153;32;37759;-82
2023/03/02 10:33:23;;;;;;;9.07;4.30;;;;;;;14.83;22.79;100190.06;7752185;32;39055;-81
2023/03/02 10:37:39;;;;;;;6.95;3.75;;;;;;;15.07;22.79;100188.44;7763123;32;39795;-82
2023/03/02 10:42:04;;;;;;;8.10;4.07;;;;;;;15.41;22.79;100174.56;7685745;32;37989;-82
2023/03/02 10:46:20;;;;;;;9.73;4.22;;;;;;;15.62;21.69;100180.59;7695638;32;36709;-81
2023/03/02 10:50:37;;;;;;;10.10;4.30;;;;;;;15.83;21.72;100174.84;7710138;32;39297;-83
2023/03/02 10:55:14;;;;;;;8.88;4.53;;;;;;;16.10;21.76;100169.44;7710257;32;40866;-82
2023/03/02 10:59:44;;;;;;;8.95;4.53;;;;;;;15.72;22.22;100163.94;7710677;32;37850;-81
2023/03/02 11:04:01;;;;;;;13.35;4.57;;;;;;;16.34;22.63;100160.28;7709826;32;36921;-82
2023/03/02 11:08:22;;;;;;;11.02;4.28;;;;;;;16.30;21.74;100156.50;7710228;32;40183;-82
2023/03/02 11:12:45;;;;;;;8.48;4.40;;;;;;;16.23;22.22;100153.28;7695516;32;39981;-82
2023/03/02 11:17:19;;;;;;;7.85;4.03;;;;;;;15.90;22.51;100153.28;7683250;32;38429;-82
2023/03/02 11:21:45;;;;;;;10.88;4.25;;;;;;;16.55;21.77;100146.97;7654947;32;37737;-83
2023/03/02 11:26:24;;;;;;;10.00;4.43;;;;;;;16.34;22.41;100154.78;7660977;32;40103;-82
2023/03/02 11:30:45;;;;;;;8.38;3.67;;;;;;;16.48;22.18;100141.03;7683557;32;39706;-82
2023/03/02 11:35:08;;;;;;;8.55;4.12;;;;;;;16.48;22.04;100141.84;7681904;32;37951;-82
2023/03/02 11:39:49;;;;;;;10.88;4.45;;;;;;;16.81;21.78;100132.72;7682301;32;37711;-83
2023/03/02 11:44:20;;;;;;;10.18;4.15;;;;;;;16.47;22.84;100126.47;7682232;32;40490;-83
2023/03/02 11:48:37;;;;;;;9.23;4.32;;;;;;;17.07;21.48;100130.31;7683314;32;40543;-82
2023/03/02 11:52:59;;;;;;;10.80;4.35;;;;;;;17.37;22.18;100115.06;7682870;32;38649;-82
2023/03/02 11:57:39;;;;;;;8.43;4.03;;;;;;;17.94;21.01;100111.84;7683642;32;37839;-82
2023/03/02 12:01:58;;;;;;;8.35;4.05;;;;;;;18.46;21.14;100102.28;7685056;32;39223;-84
2023/03/02 12:06:20;;;;;;;9.45;4.15;;;;;;;18.29;20.72;100101.03;7684831;32;39999;-83
2023/03/02 12:10:40;;;;;;;9.73;4.10;;;;;;;18.47;21.41;100088.16;7685963;32;37826;-81
2023/03/02 12:14:56;;;;;;;9.45;4.37;;;;;;;18.70;21.09;100079.81;7686016;32;38146;-82
2023/03/02 12:19:37;;;;;;;9.70;4.55;;;;;;;18.92;20.45;100078.91;7692560;32;40162;-83
2023/03/02 12:23:58;;;;;;;8.47;4.13;;;;;;;18.32;20.31;100081.09;7711069;32;40024;-82
2023/03/02 12:28:36;;;;;;;8.68;4.00;;;;;;;18.49;20.81;100069.31;7712687;32;38048;-82
2023/03/02 12:33:20;;;;;;;10.73;3.92;;;;;;;18.27;20.49;100072.13;7712729;32;37070;-83
2023/03/02 12:37:55;;;;;;;9.82;4.25;;;;;;;18.67;20.91;100067.44;7712726;32;39236;-83
2023/03/02 12:42:39;;;;;;;8.35;4.60;;;;;;;18.82;21.39;100076.44;7700941;32;39946;-83
2023/03/02 12:46:55;;;;;;;9.07;4.25;;;;;;;18.62;21.16;100073.09;7716836;32;37976;-83
2023/03/02 12:51:23;;;;;;;9.10;4.80;;;;;;;19.11;20.44;100057.34;7710798;32;37023;-84
2023/03/02 12:55:44;;;;;;;10.67;4.37;;;;;;;19.38;20.08;100060.94;7710549;32;39997;-84
2023/03/02 13:00:02;;;;;;;13.85;4.65;;;;;;;19.54;20.65;100046.63;7711428;32;40697;-83
2023/03/02 13:04:24;;;;;;;8.88;4.68;;;;;;;19.18;20.70;100045.00;7711494;32;36522;-84
2023/03/02 13:08:43;;;;;;;10.73;4.95;;;;;;;19.45;20.23;100041.09;7711898;32;37109;-83
2023/03/02 13:13:12;;;;;;;9.73;4.28;;;;;;;20.13;20.86;100037.78;7710966;32;39005;-84
2023/03/02 13:17:31;;;;;;;13.43;4.68;;;;;;;20.40;20.55;100039.31;7711831;32;40587;-85
2023/03/02 13:21:49;;;;;;;9.15;4.37;;;;;;;19.61;20.70;100030.34;7711346;32;38974;-86
2023/03/02 13:26:06;;;;;;;9.98;4.00;;;;;;;20.00;20.42;100023.00;7711481;32;36981;-85
2023/03/02 13:30:31;;;;;;;10.10;4.15;;;;;;;20.97;19.87;100013.97;7710811;32;39146;-84
2023/03/02 13:34:58;;;;;;;9.65;4.57;;;;;;;21.50;19.39;100005.25;7711588;32;40323;-85
2023/03/02 13:39:21;;;;;;;10.27;4.50;;;;;;;21.91;19.58;100000.78;7710791;32;39183;-85
2023/03/02 13:43:38;;;;;;;10.73;4.40;;;;;;;21.55;19.02;100002.28;7703710;32;37761;-85
2023/03/02 13:47:57;;;;;;;10.55;4.30;;;;;;;21.55;19.49;99996.72;7711375;32;39354;-84
2023/03/02 13:52:26;;;;;;;8.00;3.95;;;;;;;21.33;19.18;99993.13;7711491;32;38973;-84
2023/03/02 13:56:45;;;;;;;8.38;3.97;;;;;;;21.57;18.88;99986.09;7709755;32;37623;-84
2023/03/02 14:01:03;;;;;;;9.27;4.35;;;;;;;21.69;19.67;99988.91;7712160;32;34643;-84
2023/03/02 14:05:24;;;;;;;9.50;4.60;;;;;;;21.93;18.70;99981.81;7711368;32;39172;-84
2023/03/02 14:09:40;;;;;;;10.35;4.30;;;;;;;22.09;18.95;99973.62;7711242;32;40792;-85
2023/03/02 14:14:00;;;;;;;8.75;4.20;;;;;;;21.82;19.17;99972.28;7711034;32;37776;-84
2023/03/02 14:18:41;;;;;;;8.38;4.22;;;;;;;21.96;19.74;99966.44;7710542;32;36867;-84
2023/03/02 14:23:02;;;;;;;7.43;4.00;;;;;;;22.31;19.07;99956.53;7711598;32;39742;-86
2023/03/02 14:27:19;;;;;;;9.40;3.95;;;;;;;21.68;19.37;99962.34;7710788;32;40022;-84
2023/03/02 14:31:35;;;;;;;8.77;3.97;;;;;;;21.98;19.21;99945.50;7711312;32;37851;-84
2023/03/02 14:35:54;;;;;;;9.45;4.10;;;;;;;21.87;19.53;99947.94;7710886;32;37219;-84
2023/03/02 14:40:28;;;;;;;9.00;4.37;;;;;;;21.91;18.96;99945.28;7711011;32;38934;-83
2023/03/02 14:44:47;;;;;;;10.10;5.22;;;;;;;22.23;19.30;99939.97;7706602;32;40789;-85
2023/03/02 14:49:03;;;;;;;9.80;4.97;;;;;;;22.51;18.91;99942.91;7710156;32;38551;-85
2023/03/02 14:53:28;;;;;;;8.50;4.30;;;;;;;22.62;18.68;99941.25;7710546;32;37009;-85
2023/03/02 14:57:45;;;;;;;10.00;4.40;;;;;;;22.27;19.44;99935.34;7709181;32;40045;-84
2023/03/02 15:02:03;;;;;;;10.23;4.47;;;;;;;22.67;18.99;99931.87;7710575;32;40706;-83
2023/03/02 15:06:41;;;;;;;9.80;4.80;;;;;;;22.25;19.54;99926.53;7709998;32;37526;-82
2023/03/02 15:10:57;;;;;;;7.80;4.20;;;;;;;22.28;18.66;99926.72;7708870;32;36759;-83
2023/03/02 15:15:13;;;;;;;7.22;4.35;;;;;;;22.38;19.36;99919.88;7710428;32;39401;-83
2023/03/02 15:19:32;;;;;;;9.52;4.20;;;;;;;22.62;18.39;99919.03;7709436;32;39834;-83
2023/03/02 15:23:49;;;;;;;9.30;4.80;;;;;;;23.15;18.24;99919.03;7710129;32;38683;-83
2023/03/02 15:28:08;;;;;;;12.40;4.87;;;;;;;24.57;16.37;99919.50;7709925;32;36924;-84
2023/03/02 15:32:26;;;;;;;9.20;5.00;;;;;;;26.64;14.76;99909.00;7709604;32;38976;-83
2023/03/02 15:36:42;;;;;;;9.35;4.57;;;;;;;27.88;13.85;99910.84;7709950;32;39709;-83
2023/03/02 15:41:10;;;;;;;11.40;5.00;;;;;;;26.37;15.03;99922.94;7709433;32;36837;-83
2023/03/02 15:45:27;;;;;;;8.07;4.22;;;;;;;25.15;15.92;99926.31;7700645;32;36667;-83
2023/03/02 15:49:43;;;;;;;9.60;4.25;;;;;;;23.03;18.58;99939.31;7709296;32;40054;-82
2023/03/02 15:54:02;;;;;;;10.90;4.90;;;;;;;22.20;19.19;99935.94;7709566;32;40209;-83
2023/03/02 15:58:18;;;;;;;11.43;5.37;;;;;;;21.46;20.23;99937.75;7709163;32;38583;-83
2023/03/02 16:02:39;;;;;;;9.63;4.95;;;;;;;20.62;21.38;99944.09;7708936;32;37110;-82
2023/03/02 16:06:56;;;;;;;10.45;5.60;;;;;;;20.07;22.03;99948.59;7709181;32;40087;-83
2023/03/02 16:11:12;;;;;;;10.90;5.18;;;;;;;19.91;22.48;99945.56;7708631;32;40838;-81
2023/03/02 16:15:28;;;;;;;10.10;4.68;;;;;;;19.18;23.40;99942.75;7708967;32;37633;-82
2023/03/02 16:19:45;;;;;;;15.40;5.57;;;;;;;18.35;24.63;99953.50;7708531;32;37093;-83
2023/03/02 16:24:04;;;;;;;10.75;5.28;;;;;;;17.92;25.15;99948.63;7708777;32;39462;-82
2023/03/02 16:28:20;;;;;;;9.98;4.93;;;;;;;17.29;26.41;99952.44;7708640;32;40057;-82
2023/03/02 16:32:37;;;;;;;9.98;4.62;;;;;;;16.69;27.57;99960.63;7708065;32;37641;-82
2023/03/02 16:36:53;;;;;;;10.40;4.70;;;;;;;16.29;28.39;99962.28;7708474;32;37771;-83
2023/03/02 16:41:19;;;;;;;9.30;4.55;;;;;;;15.90;29.04;99960.81;7707924;32;39961;-83
2023/03/02 16:45:35;;;;;;;8.90;4.50;;;;;;;15.66;29.47;99967.28;7704320;32;40023;-82
2023/03/02 16:49:52;;;;;;;17.60;5.62;;;;;;;14.90;30.65;99969.28;7712077;32;37912;-83
2023/03/02 16:54:08;;;;;;;10.00;4.45;;;;;;;14.67;30.92;99980.03;7711627;32;37019;-81
2023/03/02 16:58:27;;;;;;;9.80;4.78;;;;;;;14.31;31.60;99974.12;7712494;32;38936;-82
2023/03/02 17:02:43;;;;;;;9.63;5.07;;;;;;;13.81;32.40;99985.34;7711564;32;39906;-82
2023/03/02 17:07:00;;;;;;;14.70;5.40;;;;;;;13.95;31.75;99982.75;7711906;32;37956;-83
2023/03/02 17:11:17;;;;;;;12.10;5.55;;;;;;;13.77;32.43;99987.84;7711760;32;37186;-82
2023/03/02 17:15:33;;;;;;;11.10;6.53;;;;;;;13.45;33.13;99996.59;7711622;32;40032;-82
2023/03/02 17:19:49;;;;;;;11.82;5.53;;;;;;;13.30;33.57;99994.78;7711701;32;40185;-82
2023/03/02 17:24:06;;;;;;;13.38;5.32;;;;;;;13.19;34.01;99995.94;7711255;32;38768;-82
2023/03/02 17:28:23;;;;;;;11.82;5.12;;;;;;;12.88;34.76;100009.81;7712012;32;37130;-81
2023/03/02 17:32:39;;;;;;;12.88;5.70;;;;;;;13.01;34.20;100000.19;7711366;32;39179;-79
2023/03/02 17:36:59;;;;;;;10.73;5.60;;;;;;;12.34;35.08;100006.75;7711717;32;40789;-82
2023/03/02 17:41:15;;;;;;;12.35;5.28;;;;;;;12.51;34.99;99998.22;7711669;32;37734;-82
2023/03/02 17:45:32;;;;;;;16.42;5.80;;;;;;;12.10;35.76;100011.19;7707671;32;36729;-82
2023/03/02 17:49:48;;;;;;;11.32;5.82;;;;;;;12.14;35.89;100015.84;7711614;32;39971;-81
2023/03/02 17:54:04;;;;;;;12.27;6.03;;;;;;;11.70;36.85;100010.94;7710751;32;41254;-81
2023/03/02 17:58:20;;;;;;;10.70;5.65;;;;;;;11.61;36.92;100007.94;7711542;32;37834;-80
2023/03/02 18:02:37;;;;;;;11.18;5.43;;;;;;;11.70;36.90;100010.94;7711300;32;37659;-81
2023/03/02 18:06:55;;;;;;;11.40;5.47;;;;;;;11.33;38.21;100011.19;7711072;32;38175;-81
2023/03/02 18:11:12;;;;;;;10.73;5.72;;;;;;;11.26;38.37;100011.44;7711172;32;39889;-81
2023/03/02 18:15:30;;;;;;;10.27;5.25;;;;;;;11.54;37.65;100007.41;7710717;32;38546;-80
2023/03/02 18:19:47;;;;;;;9.23;4.97;;;;;;;11.47;37.78;100001.41;7711226;32;36054;-81
2023/03/02 18:24:03;;;;;;;10.73;5.43;;;;;;;11.26;37.96;100006.84;7710624;32;39233;-81
2023/03/02 18:28:19;;;;;;;11.95;6.22;;;;;;;11.01;38.56;100014.97;7711557;32;39971;-80
2023/03/02 18:32:36;;;;;;;12.37;6.53;;;;;;;10.60;39.47;100012.09;7710956;32;37914;-81
2023/03/02 18:36:52;;;;;;;18.35;8.93;;;;;;;10.48;39.59;100021.31;7710681;32;37073;-80
2023/03/02 18:41:10;;;;;;;17.55;7.95;;;;;;;10.43;40.50;100021.28;7711029;32;40480;-81
2023/03/02 18:45:29;;;;;;;15.85;8.25;;;;;;;10.44;40.18;100025.66;7702401;32;38942;-80
2023/03/02 18:49:45;;;;;;;14.55;7.45;;;;;;;10.14;40.70;100016.22;7711003;32;37042;-80
2023/03/02 18:54:02;;;;;;;15.88;7.93;;;;;;;9.83;41.29;100033.41;7710481;32;37717;-81
2023/03/02 18:58:22;;;;;;;24.00;9.40;;;;;;;10.18;40.68;100030.13;7710395;32;39974;-79
2023/03/02 19:02:38;;;;;;;21.65;8.32;;;;;;;9.70;42.04;100038.22;7709136;32;39957;-80
2023/03/02 19:06:55;;;;;;;16.27;7.20;;;;;;;9.83;41.81;100033.41;7708413;32;37979;-81
2023/03/02 19:11:12;;;;;;;14.52;7.90;;;;;;;9.67;42.17;100036.00;7709597;32;36977;-81
2023/03/02 19:15:31;;;;;;;15.55;6.45;;;;;;;9.40;42.94;100041.53;7707413;32;38878;-81
2023/03/02 19:19:48;;;;;;;12.75;6.78;;;;;;;9.66;42.34;100030.81;7708855;32;40783;-81
2023/03/02 19:24:04;;;;;;;18.95;6.82;;;;;;;9.52;42.60;100039.44;7709018;32;38146;-81
2023/03/02 19:28:20;;;;;;;13.35;6.45;;;;;;;9.23;43.31;100047.06;7709005;32;37671;-80
2023/03/02 19:32:37;;;;;;;16.87;7.97;;;;;;;9.47;42.74;100041.28;7708988;32;39195;-81
2023/03/02 19:36:53;;;;;;;18.80;8.35;;;;;;;9.51;42.91;100047.88;7709760;32;40012;-81
2023/03/02 19:41:12;;;;;;;16.40;7.30;;;;;;;9.37;42.81;100040.13;7708661;32;38742;-81
2023/03/02 19:45:31;;;;;;;17.37;8.55;;;;;;;9.10;43.30;100058.34;7708526;32;37509;-80
2023/03/02 19:49:48;;;;;;;14.82;8.43;;;;;;;8.50;44.89;100060.87;7708508;32;39287;-80
2023/03/02 19:54:04;;;;;;;15.68;7.80;;;;;;;8.52;44.73;100055.19;7709289;32;40815;-80
2023/03/02 19:58:22;;;;;;;12.32;6.93;;;;;;;8.38;45.31;100055.53;7709304;32;38901;-80
2023/03/02 20:02:39;;;;;;;20.58;10.45;;;;;;;8.58;44.63;100055.00;7708452;32;37255;-81
2023/03/02 20:06:55;;;;;;;18.00;9.38;;;;;;;7.86;46.99;100062.12;7708872;32;40193;-81